Time;durP1;ratioP1;P1;durP2;ratioP2;P2;SDS_P1;SDS_P2;PMS_P1;PMS_P2;Temp;Humidity;BMP_temperature;BMP_pressure;BME280_temperature;BME280_humidity;BME280_pressure;Samples;Min_cycle;Max_cycle;Signal;HPM_P1;HPM_P2
2023/10/14 00:00:37;;;;;;;17.00;4.67;;;17.50;99.90;;;18.30;100.00;97131.84;5016816;28;20459;-83
2023/10/14 00:03:22;;;;;;;12.57;5.03;;;17.70;99.90;;;18.38;100.00;97126.06;5021808;28;20476;-82
2023/10/14 00:05:55;;;;;;;27.47;4.90;;;17.80;99.90;;;18.41;100.00;97128.19;5017740;28;20498;-82
2023/10/14 00:08:27;;;;;;;10.40;4.40;;;17.80;99.90;;;18.44;100.00;97125.00;5016461;28;20512;-82
2023/10/14 00:11:07;;;;;;;23.93;4.87;;;17.90;99.90;;;18.59;100.00;97124.28;5018282;28;20829;-82
2023/10/14 00:13:42;;;;;;;22.33;5.30;;;18.00;99.90;;;18.74;100.00;97134.16;5015002;28;20992;-82
2023/10/14 00:16:29;;;;;;;11.37;4.23;;;18.10;99.90;;;18.79;100.00;97120.91;5016703;28;20462;-83
2023/10/14 00:19:03;;;;;;;12.23;3.93;;;18.20;99.90;;;18.83;100.00;97135.22;5017447;28;20490;-83
2023/10/14 00:21:36;;;;;;;11.20;4.20;;;18.30;99.90;;;18.91;100.00;97132.06;5017869;28;20468;-82
2023/10/14 00:24:09;;;;;;;12.80;4.50;;;18.30;99.90;;;18.94;100.00;97134.97;5018715;28;20460;-82
2023/10/14 00:26:41;;;;;;;11.20;4.40;;;18.40;99.90;;;19.04;100.00;97144.78;5016008;28;20545;-82
2023/10/14 00:29:19;;;;;;;8.97;4.20;;;18.50;99.90;;;19.13;100.00;97143.22;5017901;28;21123;-83
2023/10/14 00:31:52;;;;;;;17.07;4.80;;;18.60;99.90;;;19.18;100.00;97127.31;5017303;28;20577;-83
2023/10/14 00:34:23;;;;;;;14.47;4.40;;;18.60;99.90;;;19.20;100.00;97135.00;5018026;28;20454;-83
2023/10/14 00:36:55;;;;;;;16.53;5.10;;;18.70;99.90;;;19.22;100.00;97136.34;5016205;28;20489;-83
2023/10/14 00:39:27;;;;;;;12.13;4.77;;;18.70;99.90;;;19.26;100.00;97145.38;5014756;28;20570;-82
2023/10/14 00:41:59;;;;;;;14.23;4.93;;;18.70;99.90;;;19.29;100.00;97141.38;5022901;28;21184;-84
2023/10/14 00:44:29;;;;;;;27.30;5.53;;;18.70;99.90;;;19.28;100.00;97129.97;5024814;28;21012;-82
2023/10/14 00:47:02;;;;;;;22.83;5.23;;;18.70;99.90;;;19.33;100.00;97123.88;5021729;28;20463;-82
2023/10/14 00:49:34;;;;;;;10.03;4.80;;;18.70;99.90;;;19.32;100.00;97125.75;5024270;28;20555;-82
2023/10/14 00:52:10;;;;;;;13.03;4.77;;;18.80;99.90;;;19.31;100.00;97142.69;5022182;28;20471;-82
2023/10/14 00:54:58;;;;;;;14.80;5.80;;;18.70;99.90;;;19.34;100.00;97110.34;5021911;28;20467;-83
2023/10/14 00:57:38;;;;;;;21.60;5.90;;;18.80;99.90;;;19.34;100.00;97112.19;5024172;28;20540;-83
2023/10/14 01:00:11;;;;;;;10.80;4.93;;;18.80;99.90;;;19.33;100.00;97100.78;5024076;28;20506;-82
2023/10/14 01:02:45;;;;;;;12.10;4.57;;;18.80;99.90;;;19.31;100.00;97102.94;5023252;28;20537;-83
2023/10/14 01:05:19;;;;;;;25.33;5.37;;;18.70;99.90;;;19.28;100.00;97103.47;5022043;28;20484;-82
2023/10/14 01:07:50;;;;;;;13.27;5.23;;;18.80;99.90;;;19.28;100.00;97108.75;5021825;28;20497;-82
2023/10/14 01:10:25;;;;;;;10.60;5.10;;;18.70;99.90;;;19.27;100.00;97115.13;5024030;28;21128;-83
2023/10/14 01:12:57;;;;;;;15.90;5.37;;;18.70;99.90;;;19.28;100.00;97124.66;5019938;28;20532;-85
2023/10/14 01:15:31;;;;;;;12.50;5.20;;;18.70;99.90;;;19.29;100.00;97120.16;5017210;28;20462;-82
2023/10/14 01:18:01;;;;;;;12.53;4.90;;;18.70;99.90;;;19.27;100.00;97125.72;5016376;28;20458;-83
2023/10/14 01:20:37;;;;;;;13.50;5.37;;;18.60;99.90;;;19.29;100.00;97131.56;5021217;28;20583;-83
2023/10/14 01:23:14;;;;;;;14.13;4.70;;;18.70;99.90;;;19.30;100.00;97111.16;5020876;28;20541;-82
2023/10/14 01:25:48;;;;;;;11.57;4.60;;;18.80;99.90;;;19.29;100.00;97115.66;5020330;28;20996;-83
2023/10/14 01:28:21;;;;;;;13.20;5.00;;;18.80;99.90;;;19.30;100.00;97106.63;5023080;28;20476;-83
2023/10/14 01:31:34;;;;;;;13.17;5.10;;;18.80;99.90;;;19.33;100.00;97105.31;5020898;28;21020;-82
2023/10/14 01:34:07;;;;;;;22.33;4.90;;;18.80;99.90;;;19.34;100.00;97110.34;5020808;28;20524;-83
2023/10/14 01:36:40;;;;;;;14.73;5.23;;;18.80;99.90;;;19.36;100.00;97116.19;5019861;28;20850;-83
2023/10/14 01:39:21;;;;;;;7.10;4.40;;;18.80;99.90;;;19.36;100.00;97100.28;5019075;28;20528;-82
2023/10/14 01:41:53;;;;;;;22.63;4.70;;;18.80;99.90;;;19.36;100.00;97105.59;5018776;28;21051;-83
2023/10/14 01:44:26;;;;;;;9.47;4.70;;;18.90;99.90;;;19.35;100.00;97109.28;5019966;28;20457;-83
2023/10/14 01:46:56;;;;;;;16.53;5.90;;;18.80;99.90;;;19.36;100.00;97116.19;5021681;28;20466;-82
2023/10/14 01:49:27;;;;;;;12.93;4.60;;;18.90;99.90;;;19.35;100.00;97113.78;5025187;28;20976;-82
2023/10/14 01:51:59;;;;;;;8.93;4.20;;;18.80;99.90;;;19.36;100.00;97110.91;5029276;28;20529;-84
2023/10/14 01:54:31;;;;;;;15.77;4.90;;;18.90;99.90;;;19.36;100.00;97118.84;5029576;28;20482;-83
2023/10/14 01:57:05;;;;;;;13.20;5.67;;;18.90;99.90;;;19.34;100.00;97115.66;5027922;28;20862;-82
2023/10/14 01:59:34;;;;;;;12.63;4.67;;;18.80;99.90;;;19.31;100.00;97124.13;5027898;28;20504;-82
2023/10/14 02:02:05;;;;;;;12.50;4.73;;;18.70;99.90;;;19.28;100.00;97092.84;5024296;28;20505;-82
2023/10/14 02:04:36;;;;;;;17.07;5.60;;;18.70;99.90;;;19.26;100.00;97110.09;5024089;28;20508;-82
2023/10/14 02:07:18;;;;;;;9.53;4.50;;;18.70;99.90;;;19.23;100.00;97100.78;5028139;28;20490;-82
2023/10/14 02:09:53;;;;;;;13.33;4.93;;;18.80;99.90;;;19.22;100.00;97101.88;5026046;28;20463;-82
2023/10/14 02:12:25;;;;;;;30.80;4.40;;;18.70;99.90;;;19.21;100.00;97100.28;5027253;28;20473;-82
2023/10/14 02:14:58;;;;;;;14.83;3.70;;;18.70;99.90;;;19.17;100.00;97101.88;5028987;28;20498;-82
2023/10/14 02:17:28;;;;;;;16.00;4.57;;;18.60;99.90;;;19.17;100.00;97101.06;5025469;28;20548;-82
2023/10/14 02:20:09;;;;;;;6.47;3.50;;;18.60;99.90;;;19.15;100.00;97104.00;5029602;28;21003;-82
2023/10/14 02:22:39;;;;;;;12.70;3.10;;;18.60;99.90;;;19.11;100.00;97116.19;5025435;28;20465;-82
2023/10/14 02:25:15;;;;;;;8.50;3.53;;;18.50;99.90;;;19.08;100.00;97125.47;5026197;28;20469;-82
2023/10/14 02:27:45;;;;;;;11.53;2.70;;;18.50;99.90;;;19.06;100.00;97108.22;5025228;28;20458;-82
2023/10/14 02:30:16;;;;;;;10.10;3.00;;;18.60;99.90;;;19.05;100.00;97114.59;5023669;28;20500;-82
2023/10/14 02:32:48;;;;;;;8.40;2.57;;;18.60;99.90;;;19.01;100.00;97114.31;5026925;28;20464;-83
2023/10/14 02:35:18;;;;;;;4.23;2.20;;;18.60;99.90;;;18.98;100.00;97114.06;5024025;28;20458;-83
2023/10/14 02:37:51;;;;;;;5.00;2.00;;;18.50;99.90;;;18.96;100.00;97108.22;5026840;28;20845;-82
2023/10/14 02:40:26;;;;;;;6.97;2.17;;;18.40;99.90;;;18.96;100.00;97116.16;5028123;28;20483;-83
2023/10/14 02:42:57;;;;;;;7.17;2.00;;;18.40;99.90;;;18.94;100.00;97115.63;5025856;28;20463;-82
2023/10/14 02:45:28;;;;;;;4.57;1.93;;;18.40;99.90;;;18.95;100.00;97117.22;5023693;28;20514;-83
2023/10/14 02:48:02;;;;;;;5.90;1.90;;;18.40;99.90;;;18.91;100.00;97114.31;5019987;28;20466;-83
2023/10/14 02:50:33;;;;;;;4.63;1.90;;;18.40;99.90;;;18.91;100.00;97102.91;5018301;28;21017;-83
2023/10/14 02:53:06;;;;;;;10.20;1.77;;;18.40;99.90;;;18.90;100.00;97123.31;5019443;28;20953;-82
2023/10/14 02:55:57;;;;;;;4.33;1.60;;;18.30;99.90;;;18.91;100.00;97118.81;5020637;28;20556;-83
2023/10/14 02:58:28;;;;;;;4.10;1.63;;;18.40;99.90;;;18.90;100.00;97118.00;5020894;28;21005;-82
2023/10/14 03:00:59;;;;;;;7.27;1.60;;;18.30;99.90;;;18.91;100.00;97118.81;5018724;28;20526;-83
2023/10/14 03:03:30;;;;;;;5.97;2.90;;;18.30;99.90;;;18.92;100.00;97120.38;5017767;28;21138;-83
2023/10/14 03:06:06;;;;;;;6.93;1.60;;;18.40;99.90;;;18.89;100.00;97131.50;5017793;28;20458;-82
2023/10/14 03:08:36;;;;;;;12.87;5.47;;;18.30;99.90;;;18.86;100.00;97132.84;5016842;28;20544;-82
2023/10/14 03:11:16;;;;;;;2.80;1.30;;;18.30;99.90;;;18.90;100.00;97141.84;5018824;28;20474;-83
2023/10/14 03:13:45;;;;;;;5.80;1.70;;;18.40;99.90;;;18.91;100.00;97127.56;5017778;28;20561;-83
2023/10/14 03:16:18;;;;;;;2.53;1.30;;;18.40;99.90;;;18.86;100.00;97150.59;5017525;28;20489;-82
2023/10/14 03:18:49;;;;;;;5.63;1.80;;;18.30;99.90;;;18.83;100.00;97145.81;5017287;28;21400;-82
2023/10/14 03:21:31;;;;;;;4.10;1.20;;;18.30;99.90;;;18.82;100.00;97138.91;5018064;28;20561;-83
2023/10/14 03:24:01;;;;;;;5.60;2.77;;;18.30;99.90;;;18.80;100.00;97141.03;5016711;28;20466;-81
2023/10/14 03:26:33;;;;;;;6.97;1.97;;;18.20;99.90;;;18.78;100.00;97162.47;5016585;28;20520;-81
2023/10/14 03:29:14;;;;;;;14.17;1.77;;;18.30;99.90;;;18.79;100.00;97157.97;5016211;28;20462;-82
2023/10/14 03:31:44;;;;;;;9.77;1.70;;;18.30;99.90;;;18.75;100.00;97163.00;5018013;28;20592;-82
2023/10/14 03:34:17;;;;;;;8.00;4.40;;;18.30;99.90;;;18.75;100.00;97162.22;5016428;28;20462;-82
2023/10/14 03:36:50;;;;;;;7.60;1.80;;;18.10;99.90;;;18.76;100.00;97163.81;5020519;28;20972;-82
2023/10/14 03:39:37;;;;;;;6.33;1.47;;;18.20;99.90;;;18.69;100.00;97181.78;5018421;28;20465;-83
2023/10/14 03:42:13;;;;;;;4.77;1.67;;;18.20;99.90;;;18.66;100.00;97179.66;5018279;28;20500;-81
2023/10/14 03:44:43;;;;;;;3.20;1.70;;;18.20;99.90;;;18.66;100.00;97169.88;5019454;28;20481;-82
2023/10/14 03:47:16;;;;;;;2.10;1.20;;;18.20;99.90;;;18.57;100.00;97182.81;5018614;28;20462;-82
2023/10/14 03:49:55;;;;;;;5.33;1.20;;;18.00;99.90;;;18.51;100.00;97181.19;5019715;28;20466;-83
2023/10/14 03:52:27;;;;;;;2.53;1.30;;;17.90;99.90;;;18.51;100.00;97180.41;5018493;28;20454;-83
2023/10/14 03:55:01;;;;;;;6.30;1.70;;;18.00;99.90;;;18.48;100.00;97171.09;5020383;28;20458;-83
2023/10/14 03:57:39;;;;;;;2.90;1.37;;;18.00;99.90;;;18.44;100.00;97172.66;5018246;28;20527;-82
2023/10/14 04:00:13;;;;;;;7.23;1.63;;;18.00;99.90;;;18.43;100.00;97183.53;5023989;28;20469;-82
2023/10/14 04:02:43;;;;;;;3.00;1.30;;;17.90;99.90;;;18.37;100.00;97192.47;5028574;28;20462;-83
2023/10/14 04:05:16;;;;;;;4.73;1.40;;;17.90;99.90;;;18.36;100.00;97196.97;5026244;28;20461;-83
2023/10/14 04:07:49;;;;;;;5.03;1.43;;;17.80;99.90;;;18.35;100.00;97182.16;5023602;28;20459;-80
2023/10/14 04:10:23;;;;;;;4.33;1.87;;;17.80;99.90;;;18.33;100.00;97201.97;5017551;28;20459;-82
2023/10/14 04:12:55;;;;;;;6.20;1.13;;;17.90;99.90;;;18.20;100.00;97213.03;5014317;28;20477;-81
2023/10/14 04:15:34;;;;;;;3.57;1.40;;;17.80;99.90;;;18.14;100.00;97212.22;5017240;28;20925;-82
2023/10/14 04:18:12;;;;;;;4.63;1.60;;;17.70;99.90;;;18.08;100.00;97215.88;5016351;28;20469;-82
2023/10/14 04:20:46;;;;;;;5.73;1.10;;;17.60;99.90;;;17.96;100.00;97215.25;5015807;28;20509;-82
2023/10/14 04:23:28;;;;;;;2.87;1.33;;;17.40;99.90;;;17.93;100.00;97232.44;5017622;28;20461;-82
2023/10/14 04:26:11;;;;;;;3.60;1.37;;;17.30;99.90;;;17.95;100.00;97234.81;5016766;28;20501;-82
2023/10/14 04:28:53;;;;;;;15.00;2.20;;;17.40;99.90;;;17.88;100.00;97250.13;5016128;28;21271;-83
2023/10/14 04:31:38;;;;;;;36.33;18.10;;;17.40;99.90;;;17.81;100.00;97247.69;5015670;28;20558;-81
2023/10/14 04:34:10;;;;;;;10.67;2.93;;;17.30;99.90;;;17.77;100.00;97245.81;5016166;28;20471;-80
2023/10/14 04:36:53;;;;;;;5.37;1.00;;;17.20;99.90;;;17.76;100.00;97241.56;5017253;28;20462;-82
2023/10/14 04:39:31;;;;;;;4.67;1.13;;;17.10;99.90;;;17.81;100.00;97252.19;5014705;28;20461;-83
2023/10/14 04:42:22;;;;;;;3.40;1.60;;;17.10;99.90;;;17.81;100.00;97258.28;5015570;28;20497;-82
2023/10/14 04:44:59;;;;;;;4.30;1.47;;;17.10;99.90;;;17.82;100.00;97253.78;5020806;28;20486;-79
2023/10/14 04:47:37;;;;;;;5.43;1.27;;;17.20;99.90;;;17.80;100.00;97261.19;5023744;28;20471;-79
2023/10/14 04:50:14;;;;;;;2.80;0.93;;;17.10;99.90;;;17.76;100.00;97262.72;5024401;28;20517;-79
2023/10/14 04:52:48;;;;;;;6.77;1.20;;;17.10;99.90;;;17.74;100.00;97264.81;5025728;28;20467;-79
2023/10/14 04:55:25;;;;;;;3.17;1.27;;;17.10;99.90;;;17.71;100.00;97260.84;5027833;28;20452;-79
2023/10/14 04:58:11;;;;;;;1.77;1.00;;;17.10;99.90;;;17.67;100.00;97265.03;5027713;28;20470;-79
2023/10/14 05:00:45;;;;;;;3.63;1.10;;;17.10;99.90;;;17.54;100.00;97266.22;5027043;28;20595;-80
2023/10/14 05:03:18;;;;;;;3.60;1.40;;;17.00;99.90;;;17.55;100.00;97265.16;5028340;28;20457;-79
2023/10/14 05:05:52;;;;;;;4.20;1.13;;;17.00;99.90;;;17.60;100.00;97278.44;5028905;28;20474;-79
2023/10/14 05:08:24;;;;;;;2.80;1.00;;;17.00;99.90;;;17.56;100.00;97272.06;5027276;28;20460;-79
2023/10/14 05:10:56;;;;;;;3.10;1.00;;;17.10;99.90;;;17.55;100.00;97278.38;5025763;28;20463;-79
2023/10/14 05:13:31;;;;;;;2.57;1.10;;;17.00;99.90;;;17.51;100.00;97281.78;5026365;28;20483;-79
2023/10/14 05:16:16;;;;;;;1.80;0.93;;;16.90;99.90;;;17.51;100.00;97289.69;5027730;28;20853;-79
2023/10/14 05:18:59;;;;;;;4.00;0.90;;;16.80;99.90;;;17.48;100.00;97295.50;5026294;28;21278;-79
2023/10/14 05:21:43;;;;;;;1.87;0.90;;;16.80;99.90;;;17.46;100.00;97313.44;5025741;28;20497;-80
2023/10/14 05:24:14;;;;;;;3.50;1.00;;;16.80;99.90;;;17.37;100.00;97336.88;5028057;28;20867;-79
2023/10/14 05:26:46;;;;;;;2.07;1.00;;;16.70;99.90;;;17.38;100.00;97340.31;5027977;28;20503;-79
2023/10/14 05:29:18;;;;;;;1.20;0.80;;;16.80;99.90;;;17.34;100.00;97342.66;5022958;28;20462;-79
2023/10/14 05:31:52;;;;;;;2.50;1.00;;;16.80;99.90;;;17.24;100.00;97354.97;5021468;28;20513;-79
2023/10/14 05:34:24;;;;;;;1.13;0.77;;;16.70;99.90;;;17.14;100.00;97353.00;5021518;28;20461;-79
2023/10/14 05:36:55;;;;;;;1.47;0.80;;;16.60;99.90;;;17.07;100.00;97352.38;5022054;28;20466;-79
2023/10/14 05:39:27;;;;;;;1.50;0.80;;;16.50;99.90;;;17.13;100.00;97364.59;5020721;28;20494;-79
2023/10/14 05:41:59;;;;;;;2.13;0.90;;;16.60;99.90;;;17.10;100.00;97363.25;5021625;28;20485;-79
2023/10/14 05:44:28;;;;;;;1.00;0.80;;;16.60;99.90;;;17.14;100.00;97363.56;5021624;28;21059;-79
2023/10/14 05:47:00;;;;;;;1.00;0.70;;;16.50;99.90;;;17.14;100.00;97379.41;5020321;28;20511;-79
2023/10/14 05:49:31;;;;;;;1.60;0.70;;;16.50;99.90;;;17.07;100.00;97374.31;5019733;28;20463;-79
2023/10/14 05:52:02;;;;;;;3.23;1.13;;;16.40;99.90;;;17.00;100.00;97383.47;5020930;28;20464;-79
2023/10/14 05:54:31;;;;;;;1.10;0.83;;;16.40;99.90;;;16.97;100.00;97394.50;5022243;28;20468;-80
2023/10/14 05:57:02;;;;;;;2.03;0.83;;;16.30;99.90;;;17.00;100.00;97405.41;5022728;28;20473;-79
2023/10/14 05:59:33;;;;;;;0.97;0.80;;;16.40;99.90;;;16.98;100.00;97409.31;5020573;28;20462;-79
2023/10/14 06:02:07;;;;;;;1.00;0.70;;;16.40;99.90;;;16.86;100.00;97420.00;5021846;28;20485;-79
2023/10/14 06:04:39;;;;;;;2.60;0.80;;;16.20;99.90;;;16.91;100.00;97440.38;5021652;28;20457;-79
2023/10/14 06:07:09;;;;;;;0.90;0.70;;;16.30;99.90;;;16.85;100.00;97436.88;5028509;28;20976;-79
2023/10/14 06:09:39;;;;;;;1.97;0.90;;;16.30;99.90;;;16.86;100.00;97459.59;5029366;28;20482;-79
2023/10/14 06:12:12;;;;;;;1.53;0.80;;;16.20;99.90;;;16.72;100.00;97465.44;5030228;28;20868;-79
2023/10/14 06:14:43;;;;;;;1.00;0.70;;;16.20;99.90;;;16.60;100.00;97479.50;5030242;28;21028;-79
2023/10/14 06:17:15;;;;;;;0.90;0.70;;;16.20;99.90;;;16.46;100.00;97483.47;5028875;28;20837;-79
2023/10/14 06:19:44;;;;;;;1.10;0.70;;;16.10;99.90;;;16.48;100.00;97483.25;5027705;28;20520;-80
2023/10/14 06:22:14;;;;;;;0.90;0.70;;;15.90;99.90;;;16.41;100.00;97488.66;5027461;28;21147;-78
2023/10/14 06:24:47;;;;;;;1.10;0.83;;;15.80;99.90;;;16.32;100.00;97494.56;5028027;28;20456;-79
2023/10/14 06:27:21;;;;;;;1.00;0.70;;;15.80;99.90;;;16.27;100.00;97510.31;5027376;28;20450;-79
2023/10/14 06:29:55;;;;;;;1.20;0.80;;;15.80;99.90;;;16.24;100.00;97522.13;5030339;28;20552;-80
2023/10/14 06:32:25;;;;;;;1.03;0.70;;;15.70;99.90;;;16.28;100.00;97525.88;5026615;28;20545;-79
2023/10/14 06:34:59;;;;;;;2.37;0.80;;;15.70;99.90;;;16.30;100.00;97531.75;5026280;28;20952;-79
2023/10/14 06:37:38;;;;;;;0.90;0.70;;;15.70;99.90;;;16.14;100.00;97548.31;5029629;28;20455;-79
2023/10/14 06:40:12;;;;;;;1.00;0.70;;;15.60;99.90;;;16.03;100.00;97551.81;5027092;28;20497;-79
2023/10/14 06:42:44;;;;;;;2.40;0.80;;;15.40;99.90;;;15.99;100.00;97561.22;5024981;28;20542;-79
2023/10/14 06:45:17;;;;;;;1.00;0.70;;;15.40;99.90;;;15.89;100.00;97566.28;5028726;28;20486;-79
2023/10/14 06:47:51;;;;;;;1.00;0.80;;;15.40;99.90;;;15.89;100.00;97572.34;5028996;28;20483;-79
2023/10/14 06:50:23;;;;;;;1.40;0.90;;;15.40;99.90;;;15.81;100.00;97582.44;5021560;28;20549;-79
2023/10/14 06:52:58;;;;;;;1.00;0.70;;;15.30;99.90;;;15.76;100.00;97596.31;5023138;28;20462;-79
2023/10/14 06:55:37;;;;;;;1.10;0.80;;;15.30;99.90;;;15.59;100.00;97596.22;5021880;28;20561;-80
2023/10/14 06:58:07;;;;;;;1.00;0.77;;;15.20;99.90;;;15.54;100.00;97595.31;5019934;28;20466;-79
2023/10/14 07:00:38;;;;;;;1.27;0.80;;;15.20;99.90;;;15.44;100.00;97606.41;5020675;28;20500;-79
2023/10/14 07:03:12;;;;;;;1.40;1.10;;;15.10;99.90;;;15.47;100.00;97613.84;5019313;28;20914;-80
2023/10/14 07:05:48;;;;;;;1.00;0.80;;;15.10;99.90;;;15.52;100.00;97613.16;5018349;28;20870;-79
2023/10/14 07:08:19;;;;;;;1.93;0.80;;;15.00;99.90;;;15.59;100.00;97619.94;5020964;28;20485;-79
2023/10/14 07:10:51;;;;;;;4.20;0.90;;;15.10;99.90;;;15.57;100.00;97615.94;5017999;28;20462;-79
2023/10/14 07:13:22;;;;;;;1.23;0.90;;;15.00;99.90;;;15.59;100.00;97617.31;5020385;28;20474;-79
2023/10/14 07:15:53;;;;;;;1.60;0.80;;;14.80;99.90;;;15.71;100.00;97621.78;5020642;28;20465;-79
2023/10/14 07:18:25;;;;;;;4.53;1.00;;;15.00;99.90;;;15.76;100.00;97632.44;5021993;28;20466;-79
2023/10/14 07:20:59;;;;;;;1.30;0.87;;;15.00;99.90;;;15.75;100.00;97633.47;5019473;28;20461;-79
2023/10/14 07:23:33;;;;;;;1.10;0.80;;;15.10;99.90;;;15.74;100.00;97637.13;5019356;28;20530;-79
2023/10/14 07:26:11;;;;;;;1.97;0.80;;;15.10;99.90;;;15.57;100.00;97632.56;5021213;28;20952;-79
2023/10/14 07:28:44;;;;;;;1.20;0.80;;;15.10;99.90;;;15.55;100.00;97634.59;5028059;28;20981;-79
2023/10/14 07:31:14;;;;;;;0.97;0.70;;;15.00;99.90;;;15.58;100.00;97638.63;5027456;28;20466;-79
2023/10/14 07:33:45;;;;;;;1.00;0.70;;;14.80;99.90;;;15.58;100.00;97651.81;5025205;28;20465;-80
2023/10/14 07:36:15;;;;;;;1.47;0.80;;;14.90;99.90;;;15.59;100.00;97662.09;5025139;28;20516;-79
2023/10/14 07:38:45;;;;;;;1.17;0.70;;;15.10;99.90;;;15.52;100.00;97663.25;5025824;28;20492;-79
2023/10/14 07:41:15;;;;;;;1.00;0.73;;;15.00;99.90;;;15.55;100.00;97671.50;5027345;28;20953;-79
2023/10/14 07:43:45;;;;;;;1.00;0.70;;;15.00;99.90;;;15.52;100.00;97665.88;5028378;28;20500;-79
2023/10/14 07:46:15;;;;;;;1.27;0.70;;;15.00;99.90;;;15.49;100.00;97667.16;5022263;28;20533;-79
2023/10/14 07:48:47;;;;;;;1.00;0.70;;;14.80;99.90;;;15.43;100.00;97672.50;5020669;28;20472;-79
2023/10/14 07:51:16;;;;;;;2.30;0.80;;;14.90;99.90;;;15.45;100.00;97676.50;5020259;28;20457;-79
2023/10/14 07:53:57;;;;;;;2.37;1.00;;;14.70;99.90;;;15.44;100.00;97680.19;5020219;28;20890;-79
2023/10/14 07:56:28;;;;;;;1.00;0.70;;;14.80;99.90;;;15.49;100.00;97679.50;5020285;28;20463;-79
2023/10/14 07:58:58;;;;;;;1.20;0.80;;;15.00;99.90;;;15.58;100.00;97689.50;5021055;28;20469;-79
2023/10/14 08:01:27;;;;;;;1.23;0.70;;;14.90;99.90;;;15.61;100.00;97701.44;5020267;28;20464;-79
2023/10/14 08:03:59;;;;;;;1.73;0.80;;;14.90;99.90;;;15.46;100.00;97709.72;5019700;28;20597;-79
2023/10/14 08:06:31;;;;;;;1.87;0.93;;;14.90;99.90;;;15.45;100.00;97718.66;5022563;28;20493;-79
2023/10/14 08:09:02;;;;;;;1.20;0.90;;;14.80;99.90;;;15.51;100.00;97711.72;5018943;28;20543;-79
2023/10/14 08:11:37;;;;;;;1.13;0.80;;;14.90;99.90;;;15.54;100.00;97716.53;5021246;28;20469;-79
2023/10/14 08:14:07;;;;;;;2.83;1.00;;;14.90;99.90;;;15.59;100.00;97725.38;5020236;28;20472;-79
2023/10/14 08:16:37;;;;;;;2.07;0.90;;;15.00;99.90;;;15.54;100.00;97725.25;5020378;28;20454;-79
2023/10/14 08:19:10;;;;;;;1.87;0.90;;;15.10;99.90;;;15.44;100.00;97724.97;5019087;28;20991;-80
2023/10/14 08:21:42;;;;;;;1.73;0.90;;;14.80;99.90;;;15.50;100.00;97726.75;5019067;28;20461;-79
2023/10/14 08:24:14;;;;;;;2.10;1.00;;;14.90;99.90;;;15.55;100.00;97736.59;5024652;28;20489;-79
2023/10/14 08:26:46;;;;;;;2.50;1.10;;;14.90;99.90;;;15.60;100.00;97732.25;5023936;28;20477;-79
2023/10/14 08:29:19;;;;;;;6.53;1.00;;;14.90;99.90;;;15.51;100.00;97738.91;5019293;28;20831;-79
2023/10/14 08:31:53;;;;;;;2.47;1.30;;;14.90;99.90;;;15.45;100.00;97745.00;5023720;28;21034;-79
2023/10/14 08:34:26;;;;;;;2.10;1.03;;;14.80;99.90;;;15.43;100.00;97752.34;5021918;28;20459;-79
2023/10/14 08:36:56;;;;;;;3.40;1.00;;;14.80;99.90;;;15.42;100.00;97747.28;5024501;28;20809;-79
2023/10/14 08:39:31;;;;;;;3.93;0.93;;;14.90;99.90;;;15.34;100.00;97751.03;5023174;28;20484;-79
2023/10/14 08:42:09;;;;;;;2.77;1.10;;;14.80;99.90;;;15.30;100.00;97755.19;5023914;28;20458;-79
2023/10/14 08:44:45;;;;;;;6.60;1.47;;;14.70;99.90;;;15.32;100.00;97753.13;5023228;28;20695;-79
2023/10/14 08:47:16;;;;;;;6.30;1.50;;;14.50;99.90;;;15.24;100.00;97753.41;5022353;28;20553;-79
2023/10/14 08:49:48;;;;;;;5.13;1.60;;;14.60;99.90;;;15.15;100.00;97764.50;5022715;28;20474;-79
2023/10/14 08:52:21;;;;;;;3.47;1.30;;;14.60;99.90;;;15.16;100.00;97766.13;5022347;28;21382;-79
2023/10/14 08:54:51;;;;;;;1.50;1.10;;;14.60;99.90;;;15.00;100.00;97767.50;5025305;28;20468;-79
2023/10/14 08:57:23;;;;;;;5.17;1.50;;;14.40;99.90;;;14.96;100.00;97776.91;5022080;28;20467;-79
2023/10/14 08:59:53;;;;;;;2.87;1.23;;;14.40;99.90;;;14.90;100.00;97773.31;5022636;28;20524;-79
2023/10/14 09:02:25;;;;;;;9.63;1.80;;;14.50;99.90;;;14.78;100.00;97784.81;5023100;28;20992;-79
2023/10/14 09:04:59;;;;;;;3.37;1.60;;;14.40;99.90;;;14.81;100.00;97787.81;5030799;28;20528;-80
2023/10/14 09:07:31;;;;;;;2.27;1.30;;;14.20;99.90;;;14.90;100.00;97783.03;5031152;28;20826;-79
2023/10/14 09:10:00;;;;;;;3.33;1.63;;;14.40;99.90;;;14.89;100.00;97797.25;5029827;28;20473;-80
2023/10/14 09:12:30;;;;;;;5.60;1.33;;;14.30;99.90;;;14.92;100.00;97799.44;5033086;28;20523;-79
2023/10/14 09:15:00;;;;;;;8.43;1.67;;;14.40;99.90;;;14.92;100.00;97807.34;5032413;28;20461;-80
2023/10/14 09:17:30;;;;;;;4.33;1.63;;;14.30;99.90;;;14.90;100.00;97812.81;5031428;28;20829;-80
2023/10/14 09:20:02;;;;;;;3.60;1.30;;;14.20;99.90;;;14.81;100.00;97822.03;5030742;28;20494;-79
2023/10/14 09:22:33;;;;;;;8.40;2.33;;;14.40;99.90;;;14.61;100.00;97840.66;5030760;28;20460;-79
2023/10/14 09:25:03;;;;;;;5.50;1.50;;;14.10;99.90;;;14.52;100.00;97839.31;5031426;28;20528;-79
2023/10/14 09:27:34;;;;;;;9.33;2.00;;;14.10;99.90;;;14.42;100.00;97852.16;5025394;28;20462;-79
2023/10/14 09:30:10;;;;;;;5.90;1.90;;;14.00;99.90;;;14.37;100.00;97846.75;5023484;28;20972;-79
2023/10/14 09:32:42;;;;;;;6.73;1.60;;;14.00;99.90;;;14.30;100.00;97853.84;5022234;28;20465;-79
2023/10/14 09:35:15;;;;;;;3.87;1.40;;;13.90;99.90;;;14.39;100.00;97859.69;5022220;28;20545;-79
2023/10/14 09:37:46;;;;;;;4.03;1.60;;;13.80;99.90;;;14.42;100.00;97849.53;5020145;28;20961;-79
2023/10/14 09:40:16;;;;;;;9.13;2.23;;;13.80;99.90;;;14.27;99.59;97856.91;5022078;28;20589;-79
2023/10/14 09:42:50;;;;;;;6.00;1.80;;;13.80;99.90;;;14.32;99.15;97849.19;5023201;28;20478;-80
2023/10/14 09:45:22;;;;;;;10.20;2.00;;;13.90;99.90;;;14.26;100.00;97851.88;5020760;28;20533;-79
2023/10/14 09:47:57;;;;;;;4.50;1.60;;;13.80;99.90;;;14.22;100.00;97869.91;5022755;28;20485;-79
2023/10/14 09:50:32;;;;;;;5.20;1.70;;;13.90;99.90;;;14.29;100.00;97868.03;5023627;28;20457;-79
2023/10/14 09:53:02;;;;;;;7.53;2.30;;;13.90;99.90;;;14.27;100.00;97862.16;5022347;28;20488;-80
2023/10/14 09:55:32;;;;;;;9.10;1.63;;;13.90;99.90;;;14.29;100.00;97870.66;5023200;28;20466;-79
2023/10/14 09:58:04;;;;;;;4.80;1.40;;;13.90;99.90;;;14.35;100.00;97867.22;5023562;28;21027;-79
2023/10/14 10:00:34;;;;;;;4.00;1.60;;;13.90;99.90;;;14.43;100.00;97874.03;5023284;28;20462;-79
2023/10/14 10:03:06;;;;;;;7.30;1.60;;;13.90;99.90;;;14.41;100.00;97892.66;5022375;28;20548;-79
2023/10/14 10:05:46;;;;;;;5.57;1.50;;;13.70;99.90;;;14.40;100.00;97892.88;5027725;28;20482;-77
2023/10/14 10:08:47;;;;;;;3.20;1.43;;;13.90;99.90;;;14.38;97.67;97895.72;5026276;28;20461;-79
2023/10/14 10:11:23;;;;;;;5.07;1.80;;;13.90;99.90;;;14.43;97.92;97890.63;5027493;28;20501;-79
2023/10/14 10:13:53;;;;;;;7.97;1.63;;;13.90;99.90;;;14.39;98.34;97888.63;5026557;28;20865;-79
2023/10/14 10:16:23;;;;;;;7.17;2.10;;;13.80;99.90;;;14.26;97.61;97886.88;5025958;28;20524;-79
2023/10/14 10:19:02;;;;;;;5.87;1.50;;;13.80;99.90;;;14.16;95.02;97897.06;5025290;28;21018;-80
2023/10/14 10:21:40;;;;;;;4.50;1.70;;;13.60;99.90;;;14.08;93.41;97895.50;5025030;28;20550;-79
2023/10/14 10:24:24;;;;;;;6.63;3.23;;;13.50;99.90;;;14.11;94.87;97889.00;5025246;28;20569;-80
2023/10/14 10:27:11;;;;;;;4.57;1.60;;;13.60;99.90;;;14.16;95.94;97891.00;5020344;28;20458;-79
2023/10/14 10:29:46;;;;;;;5.87;1.67;;;13.60;99.90;;;14.21;95.75;97894.59;5022580;28;20481;-79
2023/10/14 10:32:20;;;;;;;4.03;1.40;;;13.60;99.90;;;14.17;95.82;97896.03;5020836;28;20536;-79
2023/10/14 10:35:20;;;;;;;3.73;1.50;;;13.70;99.90;;;14.22;95.43;97896.22;5020959;28;20470;-79
2023/10/14 10:37:57;;;;;;;5.63;1.80;;;13.70;99.90;;;14.28;93.62;97890.09;5020231;28;20474;-78